sensor_id;sensor_type;location;lat;lon;timestamp;P1;durP1;ratioP1;P2;durP2;ratioP2
70576;SDS011;58138;43.138;24.702;2023-09-30T00:00:42;12.20;;;6.88;;
70576;SDS011;58138;43.138;24.702;2023-09-30T00:03:10;10.82;;;5.78;;
70576;SDS011;58138;43.138;24.702;2023-09-30T00:05:36;8.98;;;5.88;;
70576;SDS011;58138;43.138;24.702;2023-09-30T00:10:37;13.77;;;6.93;;
70576;SDS011;58138;43.138;24.702;2023-09-30T00:13:03;10.25;;;6.97;;
70576;SDS011;58138;43.138;24.702;2023-09-30T00:15:28;11.98;;;6.47;;
70576;SDS011;58138;43.138;24.702;2023-09-30T00:17:54;13.82;;;7.30;;
70576;SDS011;58138;43.138;24.702;2023-09-30T00:20:21;11.20;;;6.85;;
70576;SDS011;58138;43.138;24.702;2023-09-30T00:22:47;14.65;;;7.20;;
70576;SDS011;58138;43.138;24.702;2023-09-30T00:25:13;11.48;;;6.85;;
70576;SDS011;58138;43.138;24.702;2023-09-30T00:27:38;11.82;;;6.05;;
70576;SDS011;58138;43.138;24.702;2023-09-30T00:30:04;9.57;;;6.93;;
70576;SDS011;58138;43.138;24.702;2023-09-30T00:32:31;9.48;;;5.93;;
70576;SDS011;58138;43.138;24.702;2023-09-30T00:34:56;10.38;;;6.57;;
70576;SDS011;58138;43.138;24.702;2023-09-30T00:37:22;9.18;;;5.35;;
70576;SDS011;58138;43.138;24.702;2023-09-30T00:39:47;10.55;;;6.30;;
70576;SDS011;58138;43.138;24.702;2023-09-30T00:42:13;11.38;;;5.53;;
70576;SDS011;58138;43.138;24.702;2023-09-30T00:44:38;9.27;;;6.82;;
70576;SDS011;58138;43.138;24.702;2023-09-30T00:47:04;11.15;;;6.28;;
70576;SDS011;58138;43.138;24.702;2023-09-30T00:49:29;10.50;;;6.93;;
70576;SDS011;58138;43.138;24.702;2023-09-30T00:51:55;17.48;;;7.50;;
70576;SDS011;58138;43.138;24.702;2023-09-30T00:54:21;13.35;;;7.38;;
70576;SDS011;58138;43.138;24.702;2023-09-30T00:56:48;12.30;;;7.13;;
70576;SDS011;58138;43.138;24.702;2023-09-30T00:59:14;11.20;;;6.93;;
70576;SDS011;58138;43.138;24.702;2023-09-30T01:01:43;9.82;;;6.05;;
70576;SDS011;58138;43.138;24.702;2023-09-30T01:04:13;11.32;;;6.65;;
70576;SDS011;58138;43.138;24.702;2023-09-30T01:06:40;11.48;;;6.57;;
70576;SDS011;58138;43.138;24.702;2023-09-30T01:09:05;14.48;;;7.15;;
70576;SDS011;58138;43.138;24.702;2023-09-30T01:11:32;14.80;;;7.00;;
70576;SDS011;58138;43.138;24.702;2023-09-30T01:13:57;12.80;;;6.70;;
70576;SDS011;58138;43.138;24.702;2023-09-30T01:16:23;13.23;;;7.10;;
70576;SDS011;58138;43.138;24.702;2023-09-30T01:18:48;12.57;;;6.95;;
70576;SDS011;58138;43.138;24.702;2023-09-30T01:21:14;14.02;;;6.57;;
70576;SDS011;58138;43.138;24.702;2023-09-30T01:23:40;11.93;;;6.95;;
70576;SDS011;58138;43.138;24.702;2023-09-30T01:26:07;17.27;;;7.57;;
70576;SDS011;58138;43.138;24.702;2023-09-30T01:28:34;12.65;;;4.70;;
70576;SDS011;58138;43.138;24.702;2023-09-30T01:31:00;13.75;;;7.28;;
70576;SDS011;58138;43.138;24.702;2023-09-30T01:33:25;13.65;;;7.25;;
70576;SDS011;58138;43.138;24.702;2023-09-30T01:35:51;12.35;;;7.20;;
70576;SDS011;58138;43.138;24.702;2023-09-30T01:38:17;15.07;;;8.02;;
70576;SDS011;58138;43.138;24.702;2023-09-30T01:40:43;13.45;;;7.80;;
70576;SDS011;58138;43.138;24.702;2023-09-30T01:43:08;15.10;;;8.40;;
70576;SDS011;58138;43.138;24.702;2023-09-30T01:45:34;12.07;;;7.00;;
70576;SDS011;58138;43.138;24.702;2023-09-30T01:48:01;8.23;;;5.35;;
70576;SDS011;58138;43.138;24.702;2023-09-30T01:50:27;13.20;;;7.38;;
70576;SDS011;58138;43.138;24.702;2023-09-30T01:52:53;13.85;;;7.63;;
70576;SDS011;58138;43.138;24.702;2023-09-30T01:55:18;12.50;;;5.47;;
70576;SDS011;58138;43.138;24.702;2023-09-30T01:57:44;14.32;;;7.07;;
70576;SDS011;58138;43.138;24.702;2023-09-30T02:00:09;14.75;;;7.72;;
70576;SDS011;58138;43.138;24.702;2023-09-30T02:02:35;17.98;;;7.55;;
70576;SDS011;58138;43.138;24.702;2023-09-30T02:05:02;11.10;;;5.40;;
70576;SDS011;58138;43.138;24.702;2023-09-30T02:07:28;8.93;;;4.57;;
70576;SDS011;58138;43.138;24.702;2023-09-30T02:09:54;9.45;;;5.53;;
70576;SDS011;58138;43.138;24.702;2023-09-30T02:12:20;13.88;;;7.53;;
70576;SDS011;58138;43.138;24.702;2023-09-30T02:14:45;13.88;;;8.60;;
70576;SDS011;58138;43.138;24.702;2023-09-30T02:17:11;17.10;;;8.80;;
70576;SDS011;58138;43.138;24.702;2023-09-30T02:19:38;25.38;;;8.55;;
70576;SDS011;58138;43.138;24.702;2023-09-30T02:22:06;17.20;;;8.75;;
70576;SDS011;58138;43.138;24.702;2023-09-30T02:24:31;14.68;;;8.43;;
70576;SDS011;58138;43.138;24.702;2023-09-30T02:26:57;17.38;;;8.60;;
70576;SDS011;58138;43.138;24.702;2023-09-30T02:29:23;16.40;;;8.18;;
70576;SDS011;58138;43.138;24.702;2023-09-30T02:31:49;14.27;;;8.30;;
70576;SDS011;58138;43.138;24.702;2023-09-30T02:34:14;16.55;;;8.57;;
70576;SDS011;58138;43.138;24.702;2023-09-30T02:36:40;17.67;;;8.32;;
70576;SDS011;58138;43.138;24.702;2023-09-30T02:39:05;13.93;;;8.52;;
70576;SDS011;58138;43.138;24.702;2023-09-30T02:41:31;12.15;;;8.07;;
70576;SDS011;58138;43.138;24.702;2023-09-30T02:43:57;9.13;;;5.38;;
70576;SDS011;58138;43.138;24.702;2023-09-30T02:46:22;11.77;;;7.13;;
70576;SDS011;58138;43.138;24.702;2023-09-30T02:48:48;7.88;;;4.40;;
70576;SDS011;58138;43.138;24.702;2023-09-30T02:51:13;10.80;;;7.10;;
70576;SDS011;58138;43.138;24.702;2023-09-30T02:53:39;12.18;;;5.93;;
70576;SDS011;58138;43.138;24.702;2023-09-30T02:56:05;13.35;;;7.30;;
70576;SDS011;58138;43.138;24.702;2023-09-30T02:58:30;17.92;;;8.18;;
70576;SDS011;58138;43.138;24.702;2023-09-30T03:00:56;14.05;;;7.88;;
70576;SDS011;58138;43.138;24.702;2023-09-30T03:03:21;13.95;;;8.55;;
70576;SDS011;58138;43.138;24.702;2023-09-30T03:05:50;15.15;;;8.02;;
70576;SDS011;58138;43.138;24.702;2023-09-30T03:08:15;11.45;;;8.20;;
70576;SDS011;58138;43.138;24.702;2023-09-30T03:10:41;14.00;;;8.15;;
70576;SDS011;58138;43.138;24.702;2023-09-30T03:13:07;13.90;;;6.63;;
70576;SDS011;58138;43.138;24.702;2023-09-30T03:15:34;8.75;;;4.63;;
70576;SDS011;58138;43.138;24.702;2023-09-30T03:18:00;7.85;;;4.60;;
70576;SDS011;58138;43.138;24.702;2023-09-30T03:20:26;12.25;;;7.70;;
70576;SDS011;58138;43.138;24.702;2023-09-30T03:22:52;13.63;;;8.45;;
70576;SDS011;58138;43.138;24.702;2023-09-30T03:25:18;14.93;;;8.70;;
70576;SDS011;58138;43.138;24.702;2023-09-30T03:27:47;14.68;;;8.40;;
70576;SDS011;58138;43.138;24.702;2023-09-30T03:30:13;13.32;;;7.95;;
70576;SDS011;58138;43.138;24.702;2023-09-30T03:32:40;15.20;;;8.05;;
70576;SDS011;58138;43.138;24.702;2023-09-30T03:35:07;14.10;;;8.43;;
70576;SDS011;58138;43.138;24.702;2023-09-30T03:37:45;13.32;;;8.63;;
70576;SDS011;58138;43.138;24.702;2023-09-30T03:40:12;10.40;;;7.18;;
70576;SDS011;58138;43.138;24.702;2023-09-30T03:42:42;20.67;;;8.82;;
70576;SDS011;58138;43.138;24.702;2023-09-30T03:45:08;12.80;;;7.47;;
70576;SDS011;58138;43.138;24.702;2023-09-30T03:47:35;11.30;;;6.88;;
70576;SDS011;58138;43.138;24.702;2023-09-30T03:50:01;11.70;;;6.70;;
70576;SDS011;58138;43.138;24.702;2023-09-30T03:52:28;11.07;;;8.13;;
70576;SDS011;58138;43.138;24.702;2023-09-30T03:54:54;12.77;;;8.60;;
70576;SDS011;58138;43.138;24.702;2023-09-30T03:57:20;15.75;;;8.23;;
70576;SDS011;58138;43.138;24.702;2023-09-30T03:59:45;15.13;;;7.63;;
70576;SDS011;58138;43.138;24.702;2023-09-30T04:02:12;14.05;;;7.07;;
70576;SDS011;58138;43.138;24.702;2023-09-30T04:04:37;13.15;;;8.43;;
70576;SDS011;58138;43.138;24.702;2023-09-30T04:07:03;14.32;;;7.68;;
70576;SDS011;58138;43.138;24.702;2023-09-30T04:09:35;18.20;;;8.98;;
70576;SDS011;58138;43.138;24.702;2023-09-30T04:12:01;16.70;;;8.60;;
70576;SDS011;58138;43.138;24.702;2023-09-30T04:14:26;14.43;;;9.13;;
70576;SDS011;58138;43.138;24.702;2023-09-30T04:16:52;13.35;;;8.90;;
70576;SDS011;58138;43.138;24.702;2023-09-30T04:19:19;9.93;;;5.60;;
70576;SDS011;58138;43.138;24.702;2023-09-30T04:21:45;19.90;;;8.35;;
70576;SDS011;58138;43.138;24.702;2023-09-30T04:24:11;15.52;;;8.57;;
70576;SDS011;58138;43.138;24.702;2023-09-30T04:26:37;16.25;;;8.57;;
70576;SDS011;58138;43.138;24.702;2023-09-30T04:29:03;17.88;;;9.25;;
70576;SDS011;58138;43.138;24.702;2023-09-30T04:31:29;12.82;;;7.47;;
70576;SDS011;58138;43.138;24.702;2023-09-30T04:33:55;12.73;;;7.63;;
70576;SDS011;58138;43.138;24.702;2023-09-30T04:36:22;17.63;;;9.70;;
70576;SDS011;58138;43.138;24.702;2023-09-30T04:38:48;9.98;;;6.78;;
70576;SDS011;58138;43.138;24.702;2023-09-30T04:41:14;11.77;;;9.00;;
70576;SDS011;58138;43.138;24.702;2023-09-30T04:43:41;17.35;;;9.65;;
70576;SDS011;58138;43.138;24.702;2023-09-30T04:46:08;13.40;;;9.07;;
70576;SDS011;58138;43.138;24.702;2023-09-30T04:48:34;12.32;;;7.50;;
70576;SDS011;58138;43.138;24.702;2023-09-30T04:50:59;13.20;;;7.10;;
70576;SDS011;58138;43.138;24.702;2023-09-30T04:53:25;12.75;;;7.13;;
70576;SDS011;58138;43.138;24.702;2023-09-30T04:55:51;15.98;;;8.73;;
70576;SDS011;58138;43.138;24.702;2023-09-30T04:58:17;26.30;;;13.02;;
70576;SDS011;58138;43.138;24.702;2023-09-30T05:00:43;14.40;;;8.75;;
70576;SDS011;58138;43.138;24.702;2023-09-30T05:03:08;17.05;;;9.18;;
70576;SDS011;58138;43.138;24.702;2023-09-30T05:05:34;15.57;;;9.75;;
70576;SDS011;58138;43.138;24.702;2023-09-30T05:08:00;9.93;;;6.78;;
70576;SDS011;58138;43.138;24.702;2023-09-30T05:10:26;16.50;;;9.82;;
70576;SDS011;58138;43.138;24.702;2023-09-30T05:12:52;29.05;;;9.73;;
70576;SDS011;58138;43.138;24.702;2023-09-30T05:15:20;13.65;;;8.38;;
70576;SDS011;58138;43.138;24.702;2023-09-30T05:17:46;14.45;;;6.90;;
70576;SDS011;58138;43.138;24.702;2023-09-30T05:20:13;15.32;;;9.25;;
70576;SDS011;58138;43.138;24.702;2023-09-30T05:22:39;20.65;;;8.88;;
70576;SDS011;58138;43.138;24.702;2023-09-30T05:25:10;16.63;;;9.27;;
70576;SDS011;58138;43.138;24.702;2023-09-30T05:27:36;13.65;;;8.68;;
70576;SDS011;58138;43.138;24.702;2023-09-30T05:30:03;16.23;;;7.43;;
70576;SDS011;58138;43.138;24.702;2023-09-30T05:32:31;19.65;;;9.70;;
70576;SDS011;58138;43.138;24.702;2023-09-30T05:34:56;13.30;;;8.48;;
70576;SDS011;58138;43.138;24.702;2023-09-30T05:37:23;14.32;;;8.25;;
70576;SDS011;58138;43.138;24.702;2023-09-30T05:39:49;14.75;;;7.72;;
70576;SDS011;58138;43.138;24.702;2023-09-30T05:42:16;16.73;;;8.00;;
70576;SDS011;58138;43.138;24.702;2023-09-30T05:44:41;17.38;;;8.23;;
70576;SDS011;58138;43.138;24.702;2023-09-30T05:47:08;13.98;;;8.38;;
70576;SDS011;58138;43.138;24.702;2023-09-30T05:49:33;14.45;;;8.20;;
70576;SDS011;58138;43.138;24.702;2023-09-30T05:51:59;19.58;;;7.68;;
70576;SDS011;58138;43.138;24.702;2023-09-30T05:54:24;11.48;;;7.10;;
70576;SDS011;58138;43.138;24.702;2023-09-30T05:56:50;13.65;;;7.88;;
70576;SDS011;58138;43.138;24.702;2023-09-30T05:59:15;18.92;;;8.50;;
70576;SDS011;58138;43.138;24.702;2023-09-30T06:01:41;12.15;;;7.65;;
70576;SDS011;58138;43.138;24.702;2023-09-30T06:04:07;12.25;;;8.23;;
70576;SDS011;58138;43.138;24.702;2023-09-30T06:06:33;14.95;;;7.38;;
70576;SDS011;58138;43.138;24.702;2023-09-30T06:08:58;13.98;;;7.55;;
70576;SDS011;58138;43.138;24.702;2023-09-30T06:11:24;16.95;;;7.15;;
70576;SDS011;58138;43.138;24.702;2023-09-30T06:13:56;15.35;;;7.60;;
70576;SDS011;58138;43.138;24.702;2023-09-30T06:16:26;16.17;;;6.95;;
70576;SDS011;58138;43.138;24.702;2023-09-30T06:18:52;15.75;;;6.78;;
70576;SDS011;58138;43.138;24.702;2023-09-30T06:21:18;13.38;;;7.45;;
70576;SDS011;58138;43.138;24.702;2023-09-30T06:23:47;14.98;;;7.40;;
70576;SDS011;58138;43.138;24.702;2023-09-30T06:26:14;12.80;;;6.95;;
70576;SDS011;58138;43.138;24.702;2023-09-30T06:28:40;13.90;;;7.20;;
70576;SDS011;58138;43.138;24.702;2023-09-30T06:31:06;16.67;;;6.90;;
70576;SDS011;58138;43.138;24.702;2023-09-30T06:33:38;11.55;;;7.20;;
70576;SDS011;58138;43.138;24.702;2023-09-30T06:36:11;10.35;;;5.97;;
70576;SDS011;58138;43.138;24.702;2023-09-30T06:38:38;18.80;;;6.30;;
70576;SDS011;58138;43.138;24.702;2023-09-30T06:41:04;14.85;;;5.75;;
70576;SDS011;58138;43.138;24.702;2023-09-30T06:43:30;15.98;;;6.53;;
70576;SDS011;58138;43.138;24.702;2023-09-30T06:45:57;14.98;;;6.50;;
70576;SDS011;58138;43.138;24.702;2023-09-30T06:48:23;11.55;;;5.80;;
70576;SDS011;58138;43.138;24.702;2023-09-30T06:50:49;17.13;;;5.88;;
70576;SDS011;58138;43.138;24.702;2023-09-30T06:53:18;9.55;;;5.38;;
70576;SDS011;58138;43.138;24.702;2023-09-30T06:55:44;10.30;;;5.90;;
70576;SDS011;58138;43.138;24.702;2023-09-30T06:58:10;11.05;;;5.70;;
70576;SDS011;58138;43.138;24.702;2023-09-30T07:00:45;14.20;;;5.97;;
70576;SDS011;58138;43.138;24.702;2023-09-30T07:03:11;15.18;;;6.00;;
70576;SDS011;58138;43.138;24.702;2023-09-30T07:05:36;11.32;;;6.15;;
70576;SDS011;58138;43.138;24.702;2023-09-30T07:08:02;12.73;;;5.25;;
70576;SDS011;58138;43.138;24.702;2023-09-30T07:10:28;8.57;;;5.50;;
70576;SDS011;58138;43.138;24.702;2023-09-30T07:12:56;14.10;;;5.55;;
70576;SDS011;58138;43.138;24.702;2023-09-30T07:15:22;19.77;;;5.25;;
70576;SDS011;58138;43.138;24.702;2023-09-30T07:17:48;14.60;;;5.80;;
70576;SDS011;58138;43.138;24.702;2023-09-30T07:20:13;14.30;;;5.40;;
70576;SDS011;58138;43.138;24.702;2023-09-30T07:22:39;9.95;;;5.10;;
70576;SDS011;58138;43.138;24.702;2023-09-30T07:25:05;13.35;;;5.60;;
70576;SDS011;58138;43.138;24.702;2023-09-30T07:27:31;17.23;;;5.43;;
70576;SDS011;58138;43.138;24.702;2023-09-30T07:29:56;12.85;;;5.82;;
70576;SDS011;58138;43.138;24.702;2023-09-30T07:32:22;19.42;;;5.80;;
70576;SDS011;58138;43.138;24.702;2023-09-30T07:34:49;18.50;;;6.38;;
70576;SDS011;58138;43.138;24.702;2023-09-30T07:37:15;13.55;;;5.00;;
70576;SDS011;58138;43.138;24.702;2023-09-30T07:39:42;10.05;;;5.50;;
70576;SDS011;58138;43.138;24.702;2023-09-30T07:42:11;15.32;;;5.68;;
70576;SDS011;58138;43.138;24.702;2023-09-30T07:44:36;18.70;;;5.80;;
70576;SDS011;58138;43.138;24.702;2023-09-30T07:47:05;15.15;;;5.07;;
70576;SDS011;58138;43.138;24.702;2023-09-30T07:49:37;13.02;;;5.28;;
70576;SDS011;58138;43.138;24.702;2023-09-30T07:52:03;14.52;;;5.03;;
70576;SDS011;58138;43.138;24.702;2023-09-30T07:54:29;14.32;;;4.90;;
70576;SDS011;58138;43.138;24.702;2023-09-30T07:56:54;15.40;;;5.03;;
70576;SDS011;58138;43.138;24.702;2023-09-30T07:59:20;9.88;;;4.50;;
70576;SDS011;58138;43.138;24.702;2023-09-30T08:01:47;14.90;;;4.90;;
70576;SDS011;58138;43.138;24.702;2023-09-30T08:04:13;11.48;;;4.82;;
70576;SDS011;58138;43.138;24.702;2023-09-30T08:06:38;15.40;;;4.82;;
70576;SDS011;58138;43.138;24.702;2023-09-30T08:09:04;10.75;;;4.57;;
70576;SDS011;58138;43.138;24.702;2023-09-30T08:11:35;14.60;;;4.78;;
70576;SDS011;58138;43.138;24.702;2023-09-30T08:14:02;19.00;;;5.28;;
70576;SDS011;58138;43.138;24.702;2023-09-30T08:16:32;17.45;;;4.90;;
70576;SDS011;58138;43.138;24.702;2023-09-30T08:18:58;14.30;;;4.75;;
70576;SDS011;58138;43.138;24.702;2023-09-30T08:21:24;13.35;;;4.93;;
70576;SDS011;58138;43.138;24.702;2023-09-30T08:23:49;19.55;;;5.45;;
70576;SDS011;58138;43.138;24.702;2023-09-30T08:26:14;17.85;;;4.82;;
70576;SDS011;58138;43.138;24.702;2023-09-30T08:28:40;9.82;;;4.47;;
70576;SDS011;58138;43.138;24.702;2023-09-30T08:31:05;10.25;;;4.78;;
70576;SDS011;58138;43.138;24.702;2023-09-30T08:33:31;11.80;;;4.85;;
70576;SDS011;58138;43.138;24.702;2023-09-30T08:36:03;10.00;;;4.47;;
70576;SDS011;58138;43.138;24.702;2023-09-30T08:38:37;13.77;;;4.55;;
70576;SDS011;58138;43.138;24.702;2023-09-30T08:41:03;17.67;;;5.03;;
70576;SDS011;58138;43.138;24.702;2023-09-30T08:43:29;11.35;;;4.28;;
70576;SDS011;58138;43.138;24.702;2023-09-30T08:45:57;8.82;;;4.20;;
70576;SDS011;58138;43.138;24.702;2023-09-30T08:48:23;11.68;;;4.03;;
70576;SDS011;58138;43.138;24.702;2023-09-30T08:50:49;7.60;;;4.45;;
70576;SDS011;58138;43.138;24.702;2023-09-30T08:53:16;16.40;;;4.68;;
70576;SDS011;58138;43.138;24.702;2023-09-30T08:55:43;8.77;;;4.68;;
70576;SDS011;58138;43.138;24.702;2023-09-30T08:58:10;11.85;;;4.80;;
70576;SDS011;58138;43.138;24.702;2023-09-30T09:00:39;9.07;;;4.60;;
70576;SDS011;58138;43.138;24.702;2023-09-30T09:03:08;11.73;;;4.55;;
70576;SDS011;58138;43.138;24.702;2023-09-30T09:05:34;13.25;;;4.38;;
70576;SDS011;58138;43.138;24.702;2023-09-30T09:07:59;8.85;;;4.70;;
70576;SDS011;58138;43.138;24.702;2023-09-30T09:10:25;9.25;;;4.78;;
70576;SDS011;58138;43.138;24.702;2023-09-30T09:12:58;12.77;;;4.60;;
70576;SDS011;58138;43.138;24.702;2023-09-30T09:15:27;14.63;;;4.30;;
70576;SDS011;58138;43.138;24.702;2023-09-30T09:17:53;12.48;;;4.40;;
70576;SDS011;58138;43.138;24.702;2023-09-30T09:20:20;16.35;;;4.38;;
70576;SDS011;58138;43.138;24.702;2023-09-30T09:22:51;8.85;;;4.40;;
70576;SDS011;58138;43.138;24.702;2023-09-30T09:25:19;13.95;;;4.70;;
70576;SDS011;58138;43.138;24.702;2023-09-30T09:27:48;14.63;;;4.50;;
70576;SDS011;58138;43.138;24.702;2023-09-30T09:30:14;8.20;;;3.83;;
70576;SDS011;58138;43.138;24.702;2023-09-30T09:32:53;13.73;;;4.70;;
70576;SDS011;58138;43.138;24.702;2023-09-30T09:35:20;11.00;;;4.28;;
70576;SDS011;58138;43.138;24.702;2023-09-30T09:37:56;11.05;;;4.30;;
70576;SDS011;58138;43.138;24.702;2023-09-30T09:40:25;8.85;;;4.10;;
70576;SDS011;58138;43.138;24.702;2023-09-30T09:42:52;14.80;;;4.05;;
70576;SDS011;58138;43.138;24.702;2023-09-30T09:45:20;16.00;;;3.90;;
70576;SDS011;58138;43.138;24.702;2023-09-30T09:47:48;16.85;;;4.47;;
70576;SDS011;58138;43.138;24.702;2023-09-30T09:50:14;13.80;;;3.92;;
70576;SDS011;58138;43.138;24.702;2023-09-30T09:52:40;9.77;;;3.80;;
70576;SDS011;58138;43.138;24.702;2023-09-30T09:55:07;10.55;;;4.00;;
70576;SDS011;58138;43.138;24.702;2023-09-30T09:57:35;10.50;;;3.80;;
70576;SDS011;58138;43.138;24.702;2023-09-30T10:00:01;13.45;;;4.63;;
70576;SDS011;58138;43.138;24.702;2023-09-30T10:02:30;13.13;;;4.63;;
70576;SDS011;58138;43.138;24.702;2023-09-30T10:04:57;10.48;;;4.35;;
70576;SDS011;58138;43.138;24.702;2023-09-30T10:07:28;9.85;;;4.43;;
70576;SDS011;58138;43.138;24.702;2023-09-30T10:09:56;15.85;;;4.88;;
70576;SDS011;58138;43.138;24.702;2023-09-30T10:12:24;12.40;;;4.28;;
70576;SDS011;58138;43.138;24.702;2023-09-30T10:14:51;12.68;;;4.47;;
70576;SDS011;58138;43.138;24.702;2023-09-30T10:17:17;15.13;;;4.00;;
70576;SDS011;58138;43.138;24.702;2023-09-30T10:25:00;13.90;;;4.28;;
70576;SDS011;58138;43.138;24.702;2023-09-30T10:35:18;13.77;;;4.20;;
70576;SDS011;58138;43.138;24.702;2023-09-30T10:40:47;12.57;;;4.55;;
70576;SDS011;58138;43.138;24.702;2023-09-30T10:45:53;9.40;;;3.97;;
70576;SDS011;58138;43.138;24.702;2023-09-30T10:50:52;10.70;;;4.00;;
70576;SDS011;58138;43.138;24.702;2023-09-30T10:53:19;8.90;;;4.30;;
70576;SDS011;58138;43.138;24.702;2023-09-30T10:55:45;16.17;;;4.22;;
70576;SDS011;58138;43.138;24.702;2023-09-30T10:58:12;12.50;;;3.90;;
70576;SDS011;58138;43.138;24.702;2023-09-30T11:00:38;11.02;;;4.15;;
70576;SDS011;58138;43.138;24.702;2023-09-30T11:03:03;12.73;;;3.97;;
70576;SDS011;58138;43.138;24.702;2023-09-30T11:05:31;13.90;;;4.00;;
70576;SDS011;58138;43.138;24.702;2023-09-30T11:08:00;18.52;;;4.20;;
70576;SDS011;58138;43.138;24.702;2023-09-30T11:10:28;12.82;;;4.18;;
70576;SDS011;58138;43.138;24.702;2023-09-30T11:12:57;28.27;;;15.95;;
70576;SDS011;58138;43.138;24.702;2023-09-30T11:15:23;13.25;;;4.25;;
70576;SDS011;58138;43.138;24.702;2023-09-30T11:17:49;19.10;;;4.80;;
70576;SDS011;58138;43.138;24.702;2023-09-30T11:20:17;11.52;;;3.83;;
70576;SDS011;58138;43.138;24.702;2023-09-30T11:22:46;15.13;;;4.63;;
70576;SDS011;58138;43.138;24.702;2023-09-30T11:25:18;15.40;;;4.35;;
70576;SDS011;58138;43.138;24.702;2023-09-30T11:27:44;15.57;;;4.22;;
70576;SDS011;58138;43.138;24.702;2023-09-30T11:30:11;9.82;;;3.75;;
70576;SDS011;58138;43.138;24.702;2023-09-30T11:32:37;15.32;;;3.80;;
70576;SDS011;58138;43.138;24.702;2023-09-30T11:35:08;12.15;;;3.75;;
70576;SDS011;58138;43.138;24.702;2023-09-30T11:40:10;12.00;;;3.80;;
70576;SDS011;58138;43.138;24.702;2023-09-30T11:42:37;23.45;;;4.47;;
70576;SDS011;58138;43.138;24.702;2023-09-30T11:45:17;17.35;;;4.63;;
70576;SDS011;58138;43.138;24.702;2023-09-30T11:50:10;12.98;;;4.30;;
70576;SDS011;58138;43.138;24.702;2023-09-30T11:52:36;14.63;;;4.03;;
70576;SDS011;58138;43.138;24.702;2023-09-30T11:55:04;11.05;;;3.80;;
70576;SDS011;58138;43.138;24.702;2023-09-30T11:57:30;13.70;;;4.22;;
70576;SDS011;58138;43.138;24.702;2023-09-30T11:59:56;10.88;;;3.72;;
70576;SDS011;58138;43.138;24.702;2023-09-30T12:02:21;18.88;;;3.95;;
70576;SDS011;58138;43.138;24.702;2023-09-30T12:04:47;12.95;;;3.38;;
70576;SDS011;58138;43.138;24.702;2023-09-30T12:07:14;10.65;;;3.88;;
70576;SDS011;58138;43.138;24.702;2023-09-30T12:09:40;13.10;;;3.70;;
70576;SDS011;58138;43.138;24.702;2023-09-30T12:12:06;13.18;;;3.90;;
70576;SDS011;58138;43.138;24.702;2023-09-30T12:14:34;9.65;;;3.60;;
70576;SDS011;58138;43.138;24.702;2023-09-30T12:17:00;7.43;;;3.60;;
70576;SDS011;58138;43.138;24.702;2023-09-30T12:19:25;10.98;;;3.80;;
70576;SDS011;58138;43.138;24.702;2023-09-30T12:21:51;10.98;;;3.78;;
70576;SDS011;58138;43.138;24.702;2023-09-30T12:24:17;16.25;;;4.15;;
70576;SDS011;58138;43.138;24.702;2023-09-30T12:26:47;17.13;;;4.00;;
70576;SDS011;58138;43.138;24.702;2023-09-30T12:29:19;12.20;;;3.90;;
70576;SDS011;58138;43.138;24.702;2023-09-30T12:31:51;18.88;;;3.90;;
70576;SDS011;58138;43.138;24.702;2023-09-30T12:34:17;10.45;;;3.42;;
70576;SDS011;58138;43.138;24.702;2023-09-30T12:36:43;14.43;;;3.70;;
70576;SDS011;58138;43.138;24.702;2023-09-30T12:39:09;15.10;;;3.67;;
70576;SDS011;58138;43.138;24.702;2023-09-30T12:41:36;10.43;;;3.35;;
70576;SDS011;58138;43.138;24.702;2023-09-30T12:44:08;11.48;;;3.75;;
70576;SDS011;58138;43.138;24.702;2023-09-30T12:46:35;14.77;;;3.80;;
70576;SDS011;58138;43.138;24.702;2023-09-30T12:49:02;18.77;;;4.40;;
70576;SDS011;58138;43.138;24.702;2023-09-30T12:51:31;13.40;;;4.05;;
70576;SDS011;58138;43.138;24.702;2023-09-30T12:53:57;16.85;;;4.07;;
70576;SDS011;58138;43.138;24.702;2023-09-30T12:56:23;13.30;;;3.85;;
70576;SDS011;58138;43.138;24.702;2023-09-30T12:58:49;15.65;;;4.13;;
70576;SDS011;58138;43.138;24.702;2023-09-30T13:01:15;15.48;;;3.63;;
70576;SDS011;58138;43.138;24.702;2023-09-30T13:03:43;15.23;;;4.35;;
70576;SDS011;58138;43.138;24.702;2023-09-30T13:06:09;12.15;;;4.22;;
70576;SDS011;58138;43.138;24.702;2023-09-30T13:08:34;15.95;;;3.65;;
70576;SDS011;58138;43.138;24.702;2023-09-30T13:11:01;12.55;;;4.13;;
70576;SDS011;58138;43.138;24.702;2023-09-30T13:13:28;12.90;;;3.70;;
70576;SDS011;58138;43.138;24.702;2023-09-30T13:15:55;10.32;;;3.33;;
70576;SDS011;58138;43.138;24.702;2023-09-30T13:18:21;9.35;;;3.20;;
70576;SDS011;58138;43.138;24.702;2023-09-30T13:20:47;12.02;;;3.67;;
70576;SDS011;58138;43.138;24.702;2023-09-30T13:23:12;15.95;;;3.60;;
70576;SDS011;58138;43.138;24.702;2023-09-30T13:25:38;15.90;;;4.28;;
70576;SDS011;58138;43.138;24.702;2023-09-30T13:28:03;10.65;;;3.10;;
70576;SDS011;58138;43.138;24.702;2023-09-30T13:30:29;12.70;;;3.80;;
70576;SDS011;58138;43.138;24.702;2023-09-30T13:32:54;11.20;;;3.45;;
70576;SDS011;58138;43.138;24.702;2023-09-30T13:35:21;12.55;;;3.80;;
70576;SDS011;58138;43.138;24.702;2023-09-30T13:37:46;7.85;;;3.42;;
70576;SDS011;58138;43.138;24.702;2023-09-30T13:40:12;10.18;;;3.50;;
70576;SDS011;58138;43.138;24.702;2023-09-30T13:42:38;11.27;;;3.50;;
70576;SDS011;58138;43.138;24.702;2023-09-30T13:45:04;16.02;;;4.20;;
70576;SDS011;58138;43.138;24.702;2023-09-30T13:47:31;12.95;;;4.10;;
70576;SDS011;58138;43.138;24.702;2023-09-30T13:49:57;10.32;;;4.80;;
70576;SDS011;58138;43.138;24.702;2023-09-30T13:52:23;20.42;;;4.65;;
70576;SDS011;58138;43.138;24.702;2023-09-30T13:54:48;13.30;;;5.43;;
70576;SDS011;58138;43.138;24.702;2023-09-30T13:57:14;19.73;;;5.55;;
70576;SDS011;58138;43.138;24.702;2023-09-30T13:59:39;9.82;;;4.20;;
70576;SDS011;58138;43.138;24.702;2023-09-30T14:02:07;12.48;;;4.13;;
70576;SDS011;58138;43.138;24.702;2023-09-30T14:04:32;10.98;;;4.20;;
70576;SDS011;58138;43.138;24.702;2023-09-30T14:07:00;13.05;;;4.00;;
70576;SDS011;58138;43.138;24.702;2023-09-30T14:09:27;14.95;;;4.20;;
70576;SDS011;58138;43.138;24.702;2023-09-30T14:11:53;14.30;;;4.18;;
70576;SDS011;58138;43.138;24.702;2023-09-30T14:14:19;7.68;;;3.85;;
70576;SDS011;58138;43.138;24.702;2023-09-30T14:16:44;10.25;;;3.80;;
70576;SDS011;58138;43.138;24.702;2023-09-30T14:19:10;13.18;;;4.47;;
70576;SDS011;58138;43.138;24.702;2023-09-30T14:21:35;11.98;;;3.90;;
70576;SDS011;58138;43.138;24.702;2023-09-30T14:24:01;11.98;;;4.70;;
70576;SDS011;58138;43.138;24.702;2023-09-30T14:26:29;14.50;;;4.05;;
70576;SDS011;58138;43.138;24.702;2023-09-30T14:28:55;18.83;;;4.80;;
70576;SDS011;58138;43.138;24.702;2023-09-30T14:31:20;13.23;;;4.30;;
70576;SDS011;58138;43.138;24.702;2023-09-30T14:33:46;18.83;;;4.60;;
70576;SDS011;58138;43.138;24.702;2023-09-30T14:36:11;13.15;;;4.15;;
70576;SDS011;58138;43.138;24.702;2023-09-30T14:38:37;11.68;;;3.95;;
70576;SDS011;58138;43.138;24.702;2023-09-30T14:41:06;12.60;;;4.32;;
70576;SDS011;58138;43.138;24.702;2023-09-30T14:43:32;10.77;;;4.13;;
70576;SDS011;58138;43.138;24.702;2023-09-30T14:46:01;17.55;;;4.43;;
70576;SDS011;58138;43.138;24.702;2023-09-30T14:48:27;14.45;;;4.28;;